Time;durP1;ratioP1;P1;durP2;ratioP2;P2;SDS_P1;SDS_P2;PMS_P1;PMS_P2;Temp;Humidity;BMP_temperature;BMP_pressure;BME280_temperature;BME280_humidity;BME280_pressure;Samples;Min_cycle;Max_cycle;Signal;HPM_P1;HPM_P2
2024/03/05 00:01:36;;;;;;;20.73;8.43;;;9.40;99.90;;;;;;4966540;28;20461;-74
2024/03/05 00:04:04;;;;;;;14.90;7.37;;;9.50;99.90;;;;;;4968264;28;21000;-73
2024/03/05 00:06:30;;;;;;;12.83;7.73;;;9.40;99.90;;;;;;4969283;28;20457;-73
2024/03/05 00:08:55;;;;;;;17.20;8.43;;;9.40;99.90;;;;;;4966209;28;20460;-73
2024/03/05 00:11:21;;;;;;;17.60;9.20;;;9.40;99.90;;;;;;4969457;28;20549;-71
2024/03/05 00:13:47;;;;;;;13.13;7.37;;;9.40;99.90;;;;;;4968800;28;20253;-72
2024/03/05 00:16:13;;;;;;;14.00;7.83;;;9.50;99.90;;;;;;4967586;28;20214;-73
2024/03/05 00:18:38;;;;;;;16.00;7.20;;;9.40;99.90;;;;;;4969608;28;20468;-75
2024/03/05 00:21:04;;;;;;;17.33;8.60;;;9.40;99.90;;;;;;4967946;28;20229;-74
2024/03/05 00:23:30;;;;;;;18.43;8.37;;;9.50;99.90;;;;;;4968030;28;20328;-74
2024/03/05 00:25:56;;;;;;;13.50;7.90;;;9.50;99.90;;;;;;4972027;28;20219;-73
2024/03/05 00:28:24;;;;;;;19.03;9.03;;;9.50;99.90;;;;;;4964025;28;20214;-73
2024/03/05 00:30:50;;;;;;;21.53;8.37;;;9.50;99.90;;;;;;4962613;28;21054;-72
2024/03/05 00:33:16;;;;;;;22.77;10.47;;;9.50;99.90;;;;;;4966666;28;20458;-73
2024/03/05 00:35:42;;;;;;;20.00;9.20;;;9.40;99.90;;;;;;4968966;28;26060;-73
2024/03/05 00:38:08;;;;;;;18.77;9.20;;;9.40;99.90;;;;;;4971070;28;20293;-74
2024/03/05 00:40:33;;;;;;;21.47;9.70;;;9.30;99.90;;;;;;4967053;28;20446;-73
2024/03/05 00:42:59;;;;;;;23.40;10.43;;;9.40;99.90;;;;;;4967731;28;20889;-74
2024/03/05 00:45:25;;;;;;;17.93;9.23;;;9.40;99.90;;;;;;4965825;28;20302;-75
2024/03/05 00:47:51;;;;;;;20.80;9.13;;;9.40;99.90;;;;;;4954314;28;20223;-75
2024/03/05 00:50:17;;;;;;;20.33;10.07;;;9.40;99.90;;;;;;4976080;28;20525;-74
2024/03/05 00:52:43;;;;;;;21.03;10.20;;;9.40;99.90;;;;;;4966259;28;20246;-74
2024/03/05 00:55:09;;;;;;;18.57;9.07;;;9.40;99.90;;;;;;4969761;28;20485;-74
2024/03/05 00:57:39;;;;;;;19.07;9.17;;;9.40;99.90;;;;;;4965746;28;20230;-74
2024/03/05 01:00:05;;;;;;;17.87;8.93;;;9.40;99.90;;;;;;4970185;28;20226;-73
2024/03/05 01:02:31;;;;;;;16.57;8.23;;;9.40;99.90;;;;;;4972356;28;20473;-74
2024/03/05 01:04:57;;;;;;;22.73;10.23;;;9.40;99.90;;;;;;4966848;28;20466;-73
2024/03/05 01:07:23;;;;;;;22.27;10.10;;;9.40;99.90;;;;;;4964688;28;21051;-74
2024/03/05 01:09:49;;;;;;;24.20;10.70;;;9.40;99.90;;;;;;4965899;28;20219;-74
2024/03/05 01:12:15;;;;;;;20.77;9.67;;;9.40;99.90;;;;;;4961557;28;20608;-74
2024/03/05 01:14:41;;;;;;;20.87;10.87;;;9.40;99.90;;;;;;4965509;28;21026;-75
2024/03/05 01:17:08;;;;;;;16.13;8.20;;;9.40;99.90;;;;;;4967422;28;20462;-74
2024/03/05 01:19:37;;;;;;;17.40;8.93;;;9.40;99.90;;;;;;4969906;28;20697;-74
2024/03/05 01:22:02;;;;;;;24.67;10.50;;;9.40;99.90;;;;;;4970043;28;20476;-74
2024/03/05 01:24:28;;;;;;;20.20;9.63;;;9.30;99.90;;;;;;4950794;28;20470;-74
2024/03/05 01:26:54;;;;;;;28.80;10.60;;;9.30;99.90;;;;;;4962205;28;20273;-74
2024/03/05 01:29:21;;;;;;;23.07;10.60;;;9.30;99.90;;;;;;4968011;28;20226;-74
2024/03/05 01:31:56;;;;;;;22.40;9.80;;;9.40;99.90;;;;;;4960950;28;20241;-75
2024/03/05 01:34:25;;;;;;;24.70;10.83;;;9.40;99.90;;;;;;4969486;28;20470;-74
2024/03/05 01:36:56;;;;;;;18.20;9.17;;;9.40;99.90;;;;;;4970560;28;20469;-74
2024/03/05 01:39:27;;;;;;;24.27;12.53;;;9.40;99.90;;;;;;4970181;28;20544;-73
2024/03/05 01:41:54;;;;;;;21.13;9.87;;;9.40;99.90;;;;;;4971077;28;20956;-74
2024/03/05 01:44:20;;;;;;;18.90;8.80;;;9.40;99.90;;;;;;4968209;28;20991;-74
2024/03/05 01:46:52;;;;;;;19.77;9.67;;;9.40;99.90;;;;;;4969611;28;20457;-75
2024/03/05 01:49:19;;;;;;;18.47;9.77;;;9.40;99.90;;;;;;4972294;28;20501;-75
2024/03/05 01:51:45;;;;;;;24.83;9.30;;;9.40;99.90;;;;;;4985144;28;20459;-74
2024/03/05 01:54:14;;;;;;;21.03;8.70;;;9.40;99.90;;;;;;4972167;28;20509;-73
2024/03/05 01:56:44;;;;;;;17.10;8.50;;;9.40;99.90;;;;;;4973352;28;20461;-73
2024/03/05 01:59:10;;;;;;;15.90;8.50;;;9.40;99.90;;;;;;4973943;28;20465;-74
2024/03/05 02:01:37;;;;;;;15.73;8.23;;;9.40;99.90;;;;;;4954495;28;20485;-74
2024/03/05 02:04:03;;;;;;;16.93;9.37;;;9.40;99.90;;;;;;4971130;28;20462;-74
2024/03/05 02:06:32;;;;;;;24.20;9.50;;;9.40;99.90;;;;;;4973492;28;20493;-73
2024/03/05 02:09:00;;;;;;;16.00;8.90;;;9.40;99.90;;;;;;4969433;28;20504;-73
2024/03/05 02:11:26;;;;;;;14.80;8.83;;;9.30;99.90;;;;;;4968960;28;20481;-75
2024/03/05 02:13:52;;;;;;;20.77;10.10;;;9.40;99.90;;;;;;4971453;28;21014;-73
2024/03/05 02:16:18;;;;;;;23.73;9.67;;;9.40;99.90;;;;;;4967053;28;20496;-72
2024/03/05 02:18:44;;;;;;;20.53;10.20;;;9.40;99.90;;;;;;4969355;28;20532;-75
2024/03/05 02:21:19;;;;;;;21.40;10.20;;;9.40;99.90;;;;;;4971200;28;20230;-72
2024/03/05 02:23:45;;;;;;;20.00;8.60;;;9.40;99.90;;;;;;4966842;28;20237;-74
2024/03/05 02:26:10;;;;;;;17.20;10.03;;;9.40;99.90;;;;;;4971350;28;20446;-74
2024/03/05 02:28:38;;;;;;;21.20;8.97;;;9.30;99.90;;;;;;4967163;28;20222;-74
2024/03/05 02:31:04;;;;;;;21.83;9.93;;;9.30;99.90;;;;;;4970697;28;20276;-75
2024/03/05 02:33:30;;;;;;;19.73;8.57;;;9.30;99.90;;;;;;4986235;28;20446;-74
2024/03/05 02:35:59;;;;;;;14.73;8.27;;;9.30;99.90;;;;;;4955938;28;20218;-74
2024/03/05 02:38:25;;;;;;;19.60;8.50;;;9.10;99.90;;;;;;4970417;28;20255;-74
2024/03/05 02:40:51;;;;;;;19.90;10.20;;;9.20;99.90;;;;;;4968527;28;20465;-73
2024/03/05 02:43:16;;;;;;;20.13;9.77;;;9.10;99.90;;;;;;4974265;28;20449;-73
2024/03/05 02:45:42;;;;;;;18.67;10.20;;;9.10;99.90;;;;;;4971366;28;20221;-74
2024/03/05 02:48:09;;;;;;;19.10;10.10;;;9.10;99.90;;;;;;4971028;28;20217;-74
2024/03/05 02:50:35;;;;;;;20.60;10.17;;;9.20;99.90;;;;;;4969907;28;20846;-74
2024/03/05 02:53:03;;;;;;;22.53;10.27;;;9.10;99.90;;;;;;4971117;28;20450;-73
2024/03/05 02:55:29;;;;;;;21.70;10.17;;;9.20;99.90;;;;;;4971381;28;20465;-73
2024/03/05 02:57:54;;;;;;;21.77;10.03;;;9.20;99.90;;;;;;4963276;28;20449;-74
2024/03/05 03:00:20;;;;;;;20.33;9.87;;;9.10;99.90;;;;;;4968071;28;20302;-74
2024/03/05 03:02:49;;;;;;;19.33;9.60;;;9.10;99.90;;;;;;4971787;28;20226;-74
2024/03/05 03:05:21;;;;;;;24.30;11.00;;;9.20;99.90;;;;;;4983105;28;20242;-73
2024/03/05 03:07:47;;;;;;;20.83;10.87;;;9.20;99.90;;;;;;4969877;28;20449;-74
2024/03/05 03:10:13;;;;;;;23.10;10.77;;;9.20;99.90;;;;;;4956519;28;20561;-73
2024/03/05 03:12:40;;;;;;;22.53;11.37;;;9.10;99.90;;;;;;4970111;28;20222;-73
2024/03/05 03:15:06;;;;;;;22.00;9.67;;;9.10;99.90;;;;;;4960240;28;20457;-73
2024/03/05 03:17:33;;;;;;;22.70;10.20;;;9.10;99.90;;;;;;4970465;28;20462;-74
2024/03/05 03:19:59;;;;;;;26.40;11.07;;;9.10;99.90;;;;;;4966774;28;20473;-73
2024/03/05 03:22:26;;;;;;;25.27;10.40;;;9.10;99.90;;;;;;4965787;28;20470;-74
2024/03/05 03:24:52;;;;;;;24.83;11.03;;;9.10;99.90;;;;;;4969559;28;20250;-74
2024/03/05 03:27:19;;;;;;;19.03;10.47;;;9.10;99.90;;;;;;4950612;28;20477;-74
2024/03/05 03:29:45;;;;;;;22.87;11.40;;;9.10;99.90;;;;;;4966546;28;20277;-75
2024/03/05 03:32:11;;;;;;;22.10;10.43;;;9.10;99.90;;;;;;4965663;28;20459;-74
2024/03/05 03:34:42;;;;;;;18.20;9.07;;;9.10;99.90;;;;;;4963016;28;20348;-75
2024/03/05 03:37:08;;;;;;;22.60;10.00;;;9.10;99.90;;;;;;4967461;28;20226;-74
2024/03/05 03:39:36;;;;;;;20.07;9.93;;;9.20;99.90;;;;;;4959976;28;20514;-74
2024/03/05 03:42:02;;;;;;;23.30;10.57;;;9.20;99.90;;;;;;4964441;28;20223;-74
2024/03/05 03:44:28;;;;;;;20.73;10.47;;;9.10;99.90;;;;;;4960169;28;20465;-73
2024/03/05 03:46:53;;;;;;;22.67;10.23;;;9.10;99.90;;;;;;4967514;28;20218;-74
2024/03/05 03:49:24;;;;;;;19.20;9.90;;;9.10;99.90;;;;;;4966521;28;20253;-74
2024/03/05 03:51:51;;;;;;;25.00;10.53;;;9.10;99.90;;;;;;4964302;28;20230;-74
2024/03/05 03:54:16;;;;;;;21.87;10.47;;;9.10;99.90;;;;;;4966599;28;20472;-73
2024/03/05 03:56:42;;;;;;;25.10;10.43;;;9.10;99.90;;;;;;4968913;28;20461;-72
2024/03/05 03:59:08;;;;;;;19.90;9.33;;;9.10;99.90;;;;;;4961666;28;20617;-73
2024/03/05 04:01:34;;;;;;;23.90;10.70;;;9.10;99.90;;;;;;4952253;28;20261;-74
2024/03/05 04:04:02;;;;;;;17.83;9.13;;;9.00;99.90;;;;;;4969694;28;20231;-74
2024/03/05 04:06:28;;;;;;;21.37;11.00;;;9.00;99.90;;;;;;4965855;28;20458;-74
2024/03/05 04:08:54;;;;;;;23.77;10.43;;;9.00;99.90;;;;;;4967117;28;20521;-75
2024/03/05 04:11:21;;;;;;;24.43;9.57;;;9.10;99.90;;;;;;4966386;28;20541;-73
2024/03/05 04:13:47;;;;;;;19.30;10.43;;;9.10;99.90;;;;;;4971477;28;20226;-74
2024/03/05 04:16:13;;;;;;;23.77;9.57;;;9.00;99.90;;;;;;4973670;28;20470;-74
2024/03/05 04:18:39;;;;;;;23.73;10.27;;;8.90;99.90;;;;;;4952374;28;20568;-74
2024/03/05 04:21:05;;;;;;;27.30;10.33;;;8.90;99.90;;;;;;4961043;28;20697;-74
2024/03/05 04:23:32;;;;;;;22.83;10.07;;;8.90;99.90;;;;;;4965071;28;20278;-74
2024/03/05 04:26:01;;;;;;;25.10;9.93;;;8.90;99.90;;;;;;4969090;28;20489;-75
2024/03/05 04:28:35;;;;;;;22.17;10.20;;;8.90;99.90;;;;;;4966978;28;20487;-72
2024/03/05 04:31:08;;;;;;;20.57;9.30;;;9.00;99.90;;;;;;4969739;28;20882;-74
2024/03/05 04:33:36;;;;;;;18.87;8.70;;;9.00;99.90;;;;;;4968896;28;20446;-75
2024/03/05 04:36:09;;;;;;;21.27;9.87;;;9.00;99.90;;;;;;4958294;28;20464;-73
2024/03/05 04:38:38;;;;;;;25.87;10.17;;;9.00;99.90;;;;;;4959236;28;20507;-74
2024/03/05 04:41:05;;;;;;;21.90;9.63;;;9.00;99.90;;;;;;4967365;28;20458;-74
2024/03/05 04:43:30;;;;;;;19.10;9.07;;;9.00;99.90;;;;;;4962602;28;20482;-74
2024/03/05 04:45:56;;;;;;;22.30;9.50;;;9.00;99.90;;;;;;4966158;28;20838;-73
2024/03/05 04:48:22;;;;;;;18.77;10.20;;;9.00;99.90;;;;;;4969329;28;20633;-74
2024/03/05 04:50:50;;;;;;;23.67;11.00;;;9.00;99.90;;;;;;4968802;28;20302;-73
2024/03/05 04:53:15;;;;;;;26.80;9.97;;;9.00;99.90;;;;;;4966987;28;20544;-74
2024/03/05 04:55:41;;;;;;;17.20;9.67;;;9.00;99.90;;;;;;4966051;28;20525;-74
2024/03/05 04:58:07;;;;;;;22.93;9.17;;;9.00;99.90;;;;;;4969817;28;20223;-73
2024/03/05 05:00:33;;;;;;;22.80;9.60;;;8.90;99.90;;;;;;4979708;28;20301;-74
2024/03/05 05:02:59;;;;;;;20.30;9.20;;;9.00;99.90;;;;;;4965469;28;20462;-73
2024/03/05 05:05:25;;;;;;;19.13;8.37;;;8.90;99.90;;;;;;4964096;28;21027;-74
2024/03/05 05:07:51;;;;;;;21.80;10.10;;;9.00;99.90;;;;;;4956558;28;20462;-74
2024/03/05 05:10:17;;;;;;;20.33;9.63;;;9.00;99.90;;;;;;4966994;28;20552;-74
2024/03/05 05:12:44;;;;;;;27.10;10.13;;;9.00;99.90;;;;;;4971587;28;21023;-74
2024/03/05 05:15:11;;;;;;;19.73;9.60;;;9.00;99.90;;;;;;4971366;28;20301;-73
2024/03/05 05:17:38;;;;;;;24.73;10.20;;;8.90;99.90;;;;;;4967851;28;20489;-74
2024/03/05 05:20:10;;;;;;;26.67;9.60;;;8.90;99.90;;;;;;4970973;28;20472;-74
2024/03/05 05:22:43;;;;;;;19.90;10.20;;;8.90;99.90;;;;;;4971127;28;20462;-73
2024/03/05 05:25:08;;;;;;;26.50;10.87;;;8.90;99.90;;;;;;4972932;28;20518;-73
2024/03/05 05:27:37;;;;;;;25.60;11.80;;;8.90;99.90;;;;;;4972923;28;20924;-72
2024/03/05 05:30:06;;;;;;;26.43;10.27;;;8.90;99.90;;;;;;4972594;28;20237;-73
2024/03/05 05:32:32;;;;;;;26.30;12.17;;;8.90;99.90;;;;;;4974551;28;20503;-74
2024/03/05 05:34:58;;;;;;;22.37;10.77;;;8.90;99.90;;;;;;4958995;28;20539;-72
2024/03/05 05:37:23;;;;;;;22.77;9.73;;;8.90;99.90;;;;;;4955576;28;20461;-73
2024/03/05 05:39:50;;;;;;;24.37;11.07;;;9.00;99.90;;;;;;4971112;28;20780;-75
2024/03/05 05:42:16;;;;;;;19.80;10.23;;;8.90;99.90;;;;;;4971411;28;20570;-73
2024/03/05 05:44:42;;;;;;;20.97;9.90;;;8.90;99.90;;;;;;4974990;28;20481;-74
2024/03/05 05:47:10;;;;;;;24.90;10.90;;;8.90;99.90;;;;;;4957864;28;20605;-72
2024/03/05 05:49:36;;;;;;;24.33;11.07;;;8.90;99.90;;;;;;4972150;28;20508;-72
2024/03/05 05:52:03;;;;;;;21.83;9.73;;;8.90;99.90;;;;;;4972377;28;20469;-74
2024/03/05 05:54:29;;;;;;;19.07;9.20;;;8.90;99.90;;;;;;4970401;28;20470;-73
2024/03/05 05:56:55;;;;;;;29.00;11.87;;;9.00;99.90;;;;;;4968920;28;20463;-73
2024/03/05 05:59:21;;;;;;;25.33;11.40;;;9.00;99.90;;;;;;4972311;28;20241;-74
2024/03/05 06:01:47;;;;;;;26.43;11.03;;;9.00;99.90;;;;;;4971588;28;20477;-73
2024/03/05 06:04:14;;;;;;;23.40;11.27;;;9.00;99.90;;;;;;4953155;28;20461;-74
2024/03/05 06:06:40;;;;;;;21.43;10.37;;;9.00;99.90;;;;;;4970387;28;20222;-75
2024/03/05 06:09:08;;;;;;;23.20;10.57;;;9.00;99.90;;;;;;4984181;28;20515;-73
2024/03/05 06:11:38;;;;;;;20.30;9.43;;;9.00;99.90;;;;;;4969071;28;20254;-73
2024/03/05 06:14:04;;;;;;;21.70;10.67;;;9.00;99.90;;;;;;4948239;28;20469;-73
2024/03/05 06:16:33;;;;;;;18.07;9.57;;;9.00;99.90;;;;;;4961136;28;20469;-74
2024/03/05 06:18:59;;;;;;;20.33;9.60;;;9.00;99.90;;;;;;4962073;28;20467;-73
2024/03/05 06:21:25;;;;;;;23.40;11.30;;;9.00;99.90;;;;;;4959789;28;20466;-73
2024/03/05 06:23:51;;;;;;;24.20;10.63;;;9.00;99.90;;;;;;4960648;28;21046;-73
2024/03/05 06:26:17;;;;;;;21.53;10.37;;;9.00;99.90;;;;;;4966024;28;20545;-73
2024/03/05 06:28:43;;;;;;;24.50;11.20;;;9.00;99.90;;;;;;4959290;28;20309;-73
2024/03/05 06:31:11;;;;;;;20.03;9.40;;;8.90;99.90;;;;;;4964884;28;20226;-74
2024/03/05 06:33:37;;;;;;;24.17;10.53;;;8.90;99.90;;;;;;4957135;28;20226;-74
2024/03/05 06:36:06;;;;;;;23.83;11.77;;;9.00;99.90;;;;;;4960173;28;20454;-74
2024/03/05 06:38:34;;;;;;;21.80;10.40;;;9.00;99.90;;;;;;4954298;28;20466;-74
2024/03/05 06:41:00;;;;;;;21.70;10.57;;;9.00;99.90;;;;;;4974722;28;20929;-74
2024/03/05 06:43:33;;;;;;;23.20;9.83;;;8.90;99.90;;;;;;4956857;28;20801;-73
2024/03/05 06:46:00;;;;;;;21.33;10.40;;;9.00;99.90;;;;;;4959736;28;20850;-74
2024/03/05 06:48:26;;;;;;;16.90;8.07;;;9.00;99.90;;;;;;4958215;28;20465;-74
2024/03/05 06:51:00;;;;;;;29.03;11.33;;;9.00;99.90;;;;;;4972752;28;20822;-74
2024/03/05 06:58:54;;;;;;;26.63;12.27;;;9.00;99.90;;;;;;4961557;28;20603;-74
2024/03/05 07:01:20;;;;;;;29.67;12.30;;;9.00;99.90;;;;;;4941921;28;20569;-74
2024/03/05 07:03:48;;;;;;;22.37;10.40;;;9.00;99.90;;;;;;4948870;28;20246;-74
2024/03/05 07:06:14;;;;;;;20.77;10.27;;;9.00;99.90;;;;;;4957797;28;20229;-74
2024/03/05 07:08:44;;;;;;;28.77;11.10;;;9.00;99.90;;;;;;4953980;28;20530;-75
2024/03/05 07:11:12;;;;;;;23.00;10.63;;;9.00;99.90;;;;;;4956898;28;20471;-73
2024/03/05 07:13:42;;;;;;;25.63;10.77;;;9.00;99.90;;;;;;4954249;28;20490;-74
2024/03/05 07:16:15;;;;;;;22.70;10.97;;;9.00;99.90;;;;;;4960527;28;20475;-75
2024/03/05 07:18:54;;;;;;;25.20;11.37;;;9.00;99.90;;;;;;4951394;28;20552;-73
2024/03/05 07:21:21;;;;;;;21.33;9.97;;;9.00;99.90;;;;;;4957435;28;20470;-74
2024/03/05 07:23:49;;;;;;;19.90;10.57;;;9.00;99.90;;;;;;4941023;28;20462;-75
2024/03/05 07:26:15;;;;;;;21.30;11.17;;;9.00;99.90;;;;;;4944664;28;20454;-74
2024/03/05 07:28:41;;;;;;;21.60;10.73;;;9.00;99.90;;;;;;4950884;28;20474;-74
2024/03/05 07:31:07;;;;;;;22.20;10.23;;;9.00;99.90;;;;;;4960186;28;20564;-74
2024/03/05 07:33:32;;;;;;;18.63;9.70;;;9.00;99.90;;;;;;4938694;28;20600;-74
2024/03/05 07:35:58;;;;;;;20.97;10.20;;;9.00;99.90;;;;;;4960136;28;20214;-74
2024/03/05 07:38:24;;;;;;;26.30;10.40;;;9.00;99.90;;;;;;4961198;28;20269;-75
2024/03/05 07:40:50;;;;;;;20.40;9.07;;;9.00;99.90;;;;;;4954288;28;20217;-74
2024/03/05 07:43:15;;;;;;;21.00;11.13;;;9.10;99.90;;;;;;4955857;28;20285;-74
2024/03/05 07:45:42;;;;;;;25.77;11.03;;;9.10;99.90;;;;;;4955745;28;20214;-74
2024/03/05 07:48:10;;;;;;;19.77;10.83;;;9.10;99.90;;;;;;4967574;28;20252;-74
2024/03/05 07:50:36;;;;;;;23.50;10.20;;;9.00;99.90;;;;;;4938430;28;20533;-74
2024/03/05 07:53:02;;;;;;;20.87;10.43;;;9.10;99.90;;;;;;4941212;28;20576;-74
2024/03/05 07:55:28;;;;;;;20.87;9.20;;;9.10;99.90;;;;;;4953252;28;20241;-73
2024/03/05 07:57:55;;;;;;;24.10;11.60;;;9.10;99.90;;;;;;4956792;28;20455;-74
2024/03/05 08:00:22;;;;;;;21.80;10.43;;;9.00;99.90;;;;;;4957849;28;20454;-74
2024/03/05 08:02:54;;;;;;;24.77;10.20;;;9.00;99.90;;;;;;4951409;28;20524;-74
2024/03/05 08:05:21;;;;;;;25.63;10.67;;;9.10;99.90;;;;;;4965669;28;20485;-74
2024/03/05 08:07:54;;;;;;;22.67;10.63;;;9.10;99.90;;;;;;4938632;28;20565;-75
2024/03/05 08:10:20;;;;;;;21.47;11.00;;;9.10;99.90;;;;;;4969574;28;20498;-74
2024/03/05 08:12:48;;;;;;;24.63;11.00;;;9.10;99.90;;;;;;4953222;28;20468;-74
2024/03/05 08:15:16;;;;;;;33.20;11.63;;;9.10;99.90;;;;;;4958973;28;20513;-74
2024/03/05 08:17:45;;;;;;;26.67;10.97;;;9.10;99.90;;;;;;4952777;28;20501;-74
2024/03/05 08:20:15;;;;;;;29.13;11.40;;;9.10;99.90;;;;;;4956991;28;20532;-74
2024/03/05 08:22:43;;;;;;;23.50;10.60;;;9.10;99.90;;;;;;4954961;28;20553;-74
2024/03/05 08:25:09;;;;;;;21.73;11.30;;;9.10;99.90;;;;;;4942119;28;21014;-74
2024/03/05 08:27:44;;;;;;;23.27;10.33;;;9.10;99.90;;;;;;4965898;28;20477;-75
2024/03/05 08:30:21;;;;;;;19.60;10.33;;;9.20;99.90;;;;;;4960127;28;20217;-74
2024/03/05 08:32:48;;;;;;;22.10;10.47;;;9.20;99.90;;;;;;4955632;28;20470;-75
2024/03/05 08:35:15;;;;;;;31.20;11.23;;;9.20;99.90;;;;;;4959592;28;20497;-74
2024/03/05 08:37:43;;;;;;;23.30;11.27;;;9.20;99.90;;;;;;4950234;28;20473;-74
2024/03/05 08:40:09;;;;;;;22.13;9.80;;;9.20;99.90;;;;;;4941719;28;20604;-74
2024/03/05 08:42:39;;;;;;;23.03;10.17;;;9.20;99.90;;;;;;4966421;28;21004;-75
2024/03/05 08:45:05;;;;;;;24.73;10.13;;;9.20;99.90;;;;;;4956862;28;20477;-74
2024/03/05 08:47:33;;;;;;;27.97;11.47;;;9.20;99.90;;;;;;4938735;28;21068;-73
2024/03/05 08:49:59;;;;;;;25.53;9.97;;;9.20;99.90;;;;;;4953826;28;20473;-74
2024/03/05 08:52:24;;;;;;;20.00;10.80;;;9.20;99.90;;;;;;4942216;28;20470;-74
2024/03/05 08:54:50;;;;;;;21.83;10.10;;;9.20;99.90;;;;;;4939662;28;20226;-74
2024/03/05 08:57:16;;;;;;;23.30;10.53;;;9.30;99.90;;;;;;4956887;28;20225;-72
2024/03/05 08:59:41;;;;;;;22.10;10.17;;;9.30;99.90;;;;;;4952853;28;20309;-74
2024/03/05 09:02:07;;;;;;;28.57;11.00;;;9.30;99.90;;;;;;4941018;28;20226;-74
2024/03/05 09:04:33;;;;;;;24.33;11.53;;;9.30;99.90;;;;;;4952916;28;20250;-74
2024/03/05 09:06:59;;;;;;;32.07;12.10;;;9.30;99.90;;;;;;4959661;28;20226;-73
2024/03/05 09:09:30;;;;;;;23.40;11.37;;;9.30;99.90;;;;;;4956269;28;20226;-74
2024/03/05 09:11:57;;;;;;;25.63;12.47;;;9.30;99.90;;;;;;4940622;28;20226;-75
2024/03/05 09:14:24;;;;;;;27.27;12.40;;;9.30;99.90;;;;;;4958946;28;20462;-74
2024/03/05 09:16:52;;;;;;;28.53;12.67;;;9.30;99.90;;;;;;4956199;28;20464;-74
2024/03/05 09:19:24;;;;;;;36.73;15.03;;;9.40;99.90;;;;;;4956749;28;20473;-74
2024/03/05 09:21:49;;;;;;;42.07;18.40;;;9.40;99.90;;;;;;4936011;28;20465;-75
2024/03/05 09:24:18;;;;;;;51.33;20.90;;;9.40;99.90;;;;;;4955876;28;20470;-74
2024/03/05 09:26:44;;;;;;;58.70;23.20;;;9.40;99.90;;;;;;4954698;28;20305;-73
2024/03/05 09:29:10;;;;;;;50.43;23.37;;;9.40;99.90;;;;;;4955893;28;20537;-74
2024/03/05 09:31:35;;;;;;;163.33;75.33;;;9.40;99.90;;;;;;4937390;28;20234;-74
2024/03/05 09:34:02;;;;;;;84.27;41.80;;;9.40;99.90;;;;;;4956910;28;20249;-74
2024/03/05 09:36:28;;;;;;;54.13;26.53;;;9.40;99.90;;;;;;4955455;28;20210;-74
2024/03/05 09:38:55;;;;;;;48.83;24.73;;;9.40;99.90;;;;;;4956336;28;20465;-74
2024/03/05 09:41:22;;;;;;;34.50;18.53;;;9.40;99.90;;;;;;4955814;28;21024;-74
2024/03/05 09:43:50;;;;;;;38.30;19.37;;;9.50;99.90;;;;;;4951842;28;20528;-74
2024/03/05 09:46:17;;;;;;;36.03;16.77;;;9.40;99.90;;;;;;4959187;28;21035;-74
2024/03/05 09:48:44;;;;;;;32.57;15.73;;;9.30;99.90;;;;;;4949897;28;20459;-75
2024/03/05 09:51:12;;;;;;;34.27;16.00;;;9.40;99.90;;;;;;4953969;28;21054;-75
2024/03/05 09:53:38;;;;;;;29.10;15.30;;;9.40;99.90;;;;;;4967839;28;20469;-74
2024/03/05 09:56:05;;;;;;;28.57;15.27;;;9.40;99.90;;;;;;4959380;28;20967;-74
2024/03/05 09:58:35;;;;;;;26.63;13.63;;;9.40;99.90;;;;;;4953417;28;20527;-74
2024/03/05 10:01:05;;;;;;;26.20;13.67;;;9.40;99.90;;;;;;4959268;28;20470;-74
2024/03/05 10:03:36;;;;;;;26.07;13.30;;;9.40;99.90;;;;;;4954866;28;20552;-74
2024/03/05 10:06:02;;;;;;;28.13;13.97;;;9.40;99.90;;;;;;4961074;28;20461;-74
2024/03/05 10:08:28;;;;;;;24.37;12.20;;;9.40;99.90;;;;;;4955608;28;20455;-74
2024/03/05 10:11:02;;;;;;;25.20;13.67;;;9.40;99.90;;;;;;4961820;28;20454;-73
2024/03/05 10:13:33;;;;;;;27.20;14.23;;;9.40;99.90;;;;;;4952736;28;20459;-75
2024/03/05 10:16:19;;;;;;;28.67;13.60;;;9.40;99.90;;;;;;4959452;28;20454;-74
2024/03/05 10:18:47;;;;;;;28.30;13.90;;;9.40;99.90;;;;;;4941386;28;20946;-74
2024/03/05 10:21:22;;;;;;;32.50;15.00;;;9.40;99.90;;;;;;4961354;28;20508;-74
2024/03/05 10:23:59;;;;;;;30.70;14.57;;;9.40;99.90;;;;;;4970516;28;20995;-75
2024/03/05 10:26:30;;;;;;;28.47;14.17;;;9.40;99.90;;;;;;4961732;28;20505;-74
2024/03/05 10:29:07;;;;;;;35.97;15.30;;;9.40;99.90;;;;;;4961017;28;20497;-74
2024/03/05 10:31:34;;;;;;;30.27;14.97;;;9.40;99.90;;;;;;4956508;28;20983;-74
2024/03/05 10:34:00;;;;;;;39.90;18.00;;;9.40;99.90;;;;;;4960986;28;20481;-75
2024/03/05 10:36:36;;;;;;;36.03;16.00;;;9.40;99.90;;;;;;4959046;28;20466;-74
2024/03/05 10:39:03;;;;;;;26.90;14.27;;;9.40;99.90;;;;;;4959928;28;20321;-74
2024/03/05 10:41:34;;;;;;;31.57;15.37;;;9.40;99.90;;;;;;4954208;28;20471;-74
2024/03/05 10:44:03;;;;;;;29.70;14.70;;;9.50;99.90;;;;;;4951853;28;20476;-74
2024/03/05 10:46:30;;;;;;;29.57;14.63;;;9.50;99.90;;;;;;4955691;28;20466;-74
2024/03/05 10:49:01;;;;;;;32.77;15.93;;;9.60;99.90;;;;;;4975677;28;21019;-75
2024/03/05 10:51:30;;;;;;;34.67;16.47;;;9.60;99.90;;;;;;4958783;28;20968;-74
2024/03/05 10:54:01;;;;;;;29.40;15.37;;;9.60;99.90;;;;;;4953994;28;20503;-75
2024/03/05 10:56:30;;;;;;;30.30;15.80;;;9.60;99.90;;;;;;4958217;28;20557;-75
2024/03/05 11:01:59;;;;;;;27.33;13.70;;;9.50;99.90;;;;;;4938621;28;20465;-75
2024/03/05 11:04:26;;;;;;;34.13;13.57;;;9.60;99.90;;;;;;4948657;28;20484;-74
2024/03/05 11:06:57;;;;;;;25.90;14.90;;;9.60;99.90;;;;;;4956531;28;20473;-74
2024/03/05 11:09:24;;;;;;;25.43;13.00;;;9.50;99.90;;;;;;4967703;28;20458;-74
2024/03/05 11:12:12;;;;;;;26.23;14.87;;;9.50;99.90;;;;;;4953454;28;20478;-74
2024/03/05 11:14:39;;;;;;;20.20;10.93;;;9.40;99.90;;;;;;4937643;28;20463;-74
2024/03/05 11:17:09;;;;;;;17.23;10.43;;;9.40;99.90;;;;;;4969263;28;20988;-75
2024/03/05 11:19:41;;;;;;;17.53;9.13;;;9.40;99.90;;;;;;4965544;28;20534;-74
2024/03/05 11:22:24;;;;;;;16.40;9.53;;;9.40;99.90;;;;;;4954681;28;20856;-74
2024/03/05 11:24:56;;;;;;;14.00;9.17;;;9.40;99.90;;;;;;4951588;28;20533;-74
2024/03/05 11:27:29;;;;;;;16.47;9.60;;;9.50;99.90;;;;;;4955928;28;20466;-74
2024/03/05 11:30:08;;;;;;;18.10;9.57;;;9.50;99.90;;;;;;4942567;28;20848;-74
2024/03/05 11:32:38;;;;;;;16.60;8.13;;;9.50;99.90;;;;;;4951011;28;20493;-74
2024/03/05 11:35:11;;;;;;;12.20;7.70;;;9.50;99.90;;;;;;4939578;28;20493;-74
2024/03/05 11:37:57;;;;;;;12.90;7.47;;;9.60;99.90;;;;;;4952681;28;20476;-75
2024/03/05 11:40:34;;;;;;;16.70;7.90;;;9.70;99.90;;;;;;4975966;28;20507;-74
2024/03/05 11:43:00;;;;;;;13.83;7.73;;;9.70;99.90;;;;;;4956591;28;20997;-74
2024/03/05 11:45:44;;;;;;;9.00;5.60;;;9.80;99.90;;;;;;4961080;28;20488;-75
2024/03/05 11:48:12;;;;;;;9.13;6.43;;;9.90;99.90;;;;;;4956051;28;20501;-74
2024/03/05 11:50:38;;;;;;;10.03;5.77;;;9.90;99.90;;;;;;4951723;28;20549;-73
2024/03/05 11:53:08;;;;;;;8.93;5.73;;;9.90;99.90;;;;;;4957019;28;20573;-73
2024/03/05 11:55:35;;;;;;;9.60;6.00;;;10.00;99.90;;;;;;4955247;28;20768;-74
2024/03/05 11:58:00;;;;;;;9.10;5.90;;;10.00;99.90;;;;;;4956467;28;20466;-74
2024/03/05 12:00:26;;;;;;;7.27;5.00;;;9.90;99.90;;;;;;4957855;28;20481;-74
2024/03/05 12:02:53;;;;;;;8.20;5.33;;;9.90;99.90;;;;;;4953421;28;20235;-74
2024/03/05 12:05:19;;;;;;;6.40;4.27;;;9.90;99.90;;;;;;4956950;28;20317;-74
2024/03/05 12:08:02;;;;;;;5.60;3.47;;;9.80;99.90;;;;;;4952161;28;20469;-74
2024/03/05 12:10:33;;;;;;;7.30;4.80;;;9.90;99.90;;;;;;4965567;28;20470;-75
2024/03/05 12:12:59;;;;;;;5.03;3.33;;;9.90;99.90;;;;;;4956904;28;20482;-74
2024/03/05 12:15:29;;;;;;;6.30;4.10;;;10.00;99.90;;;;;;4950244;28;20494;-74
2024/03/05 12:17:58;;;;;;;6.37;3.80;;;10.00;99.90;;;;;;4954245;28;20470;-75
2024/03/05 12:20:25;;;;;;;6.40;3.70;;;10.10;99.90;;;;;;4955936;28;20470;-75
2024/03/05 12:22:54;;;;;;;7.67;3.80;;;10.10;99.90;;;;;;4955911;28;20461;-74
2024/03/05 12:25:29;;;;;;;6.07;4.17;;;10.20;99.90;;;;;;4955618;28;20474;-74
2024/03/05 12:27:55;;;;;;;13.50;10.10;;;10.20;99.90;;;;;;4958957;28;20500;-75
2024/03/05 12:30:21;;;;;;;15.50;10.80;;;10.30;99.90;;;;;;4959616;28;20478;-74
2024/03/05 12:32:54;;;;;;;40.67;29.47;;;10.30;99.90;;;;;;4953599;28;25891;-75
2024/03/05 12:35:22;;;;;;;35.13;24.47;;;10.40;99.90;;;;;;4958741;28;20740;-74
2024/03/05 12:37:51;;;;;;;11.00;8.50;;;10.50;99.90;;;;;;4952613;28;20873;-74
2024/03/05 12:40:22;;;;;;;5.83;4.13;;;10.70;99.90;;;;;;4970985;28;20474;-75
2024/03/05 12:42:48;;;;;;;4.57;3.07;;;10.80;99.90;;;;;;4956036;28;21045;-74
2024/03/05 12:45:24;;;;;;;3.13;2.83;;;10.80;99.90;;;;;;4955874;28;20478;-75
2024/03/05 12:47:57;;;;;;;3.90;3.07;;;10.80;99.90;;;;;;4952955;28;21018;-74
2024/03/05 12:50:24;;;;;;;4.30;3.07;;;10.90;99.90;;;;;;4959326;28;20462;-75
2024/03/05 12:53:07;;;;;;;3.43;2.33;;;10.90;99.90;;;;;;4951133;28;20477;-74